Search for airport 
image banner adimage banner ad
image banner ad

VICG - Chandigarh

Located in Chandigarh, India

ICAO - VICG, IATA - IXC

Data provided by Airmate  

General information

Coordinates: N30°40'24" E76°47'18"
Elevation is 1030 feet MSL.
 
Rated:
View ratings: [VIEW]


View others Airports in Chandigarh

Operational data

Open for public use
Current time UTC:
Current local time:
Weather
TAF: TAF VICG 060930Z 0612/0624 32005KT 5000 HZ FEW250 BECMG 0618/0619 30005KT 4000 BR FEW250 BECMG 0620/0622 2000 BR
View NOTAMs / SUP AIP / TFR affecting this airport [VIEW]
Communications frequencies: [VIEW]

Runways:

RWY identifierQFULength (ft)Width (ft)SurfaceLDA (ft)
11114°9000148ASP
29294°9000148

Airport contact information

Address: Chandigarh India

Satellite view of VICG